Latest Weather Observations for Victoria River Downs

IDD60801

Issued at 1:31 pm CST Friday 28 April 2017 (issued every 30 minutes, with the page automatically refreshed every 10 minutes)

About weather observations | Map of weather stations | Latest weather observations for NT | Other Formats
Station Details ID: 014825 Name: VICTORIA RIVER DOWNS Lat: -16.40 Lon: 131.01 Height: 88.5 m
Data from the previous 72 hours. | See also: Recent months at Victoria River Downs
Date/Time
CST
Temp
°C
App
Temp
°C
Dew
Point
°C
Rel
Hum
%
Delta-T
°C
Wind Press
QNH
hPa
Press
MSL
hPa
Rain since
9am
mm
Dir  Spd
km/h
Gust
km/h
Spd
kts
Gust
kts
28/01:30pm 27.1 22.9 1.5 19 12.3 E 13 22 7 12 1015.8 - 0.0
28/01:00pm 26.5 21.3 2.4 21 11.7 E 19 30 10 16 1016.3 - 0.0
28/12:30pm 26.4 21.7 0.9 19 12.1 ESE 15 26 8 14 1016.8 - 0.0
28/12:00pm 25.4 20.6 0.1 19 11.7 ESE 15 30 8 16 1017.4 1016.9 0.0
28/11:30am 24.1 18.6 0.4 21 11.0 ESE 19 32 10 17 1017.8 - 0.0
28/11:00am 23.0 18.7 0.8 23 10.3 ESE 13 28 7 15 1018.5 - 0.0
28/10:30am 22.0 17.7 1.1 25 9.6 SE 13 24 7 13 1018.5 - 0.0
28/10:00am 22.0 17.0 1.6 26 9.5 SE 17 26 9 14 1018.5 - 0.0
28/09:30am 21.5 17.5 2.7 29 8.9 SE 13 22 7 12 1018.4 - 0.0
28/09:00am 21.1 16.9 1.9 28 8.9 SE 13 20 7 11 1018.4 1017.9 0.0
28/08:30am 21.1 17.1 2.9 30 8.6 SE 13 24 7 13 1018.4 - 0.0
28/08:00am 20.9 18.1 5.3 36 7.7 SSE 9 11 5 6 1018.1 - 0.0
28/07:30am 19.8 17.1 3.9 35 7.6 SE 7 9 4 5 1017.6 - 0.0
28/07:00am 20.0 16.8 2.8 32 8.1 SE 9 13 5 7 1016.8 - 0.0
28/06:30am 20.7 17.8 2.5 30 8.5 SSE 7 13 4 7 1016.3 - 0.0
28/06:00am 21.5 17.8 2.2 28 9.0 SE 11 24 6 13 1015.7 1015.1 0.0
28/05:30am 21.6 17.6 2.8 29 8.9 SE 13 24 7 13 1015.2 - 0.0
28/05:00am 21.9 17.2 3.1 29 9.0 SE 17 24 9 13 1014.9 - 0.0
28/04:30am 21.7 18.0 4.3 32 8.5 SE 13 20 7 11 1014.8 - 0.0
28/04:00am 21.6 17.9 6.3 37 7.8 SE 15 22 8 12 1014.7 - 0.0
28/03:30am 21.6 18.5 7.1 39 7.5 SE 13 19 7 10 1014.6 - 0.0
28/03:00am 21.5 18.4 7.3 40 7.3 SE 13 19 7 10 1014.5 1013.9 0.0
28/02:30am 21.4 18.8 7.6 41 7.2 SE 11 17 6 9 1014.8 - 0.0
28/02:00am 21.9 19.7 7.7 40 7.4 SE 9 15 5 8 1015.2 - 0.0
28/01:30am 22.0 19.5 8.2 41 7.3 SSE 11 15 6 8 1015.3 - 0.0
28/01:00am 21.8 20.0 8.0 41 7.2 SE 7 9 4 5 1015.7 - 0.0
28/12:30am 22.3 20.5 8.1 40 7.5 ESE 7 9 4 5 1015.7 - 0.0
28/12:00am 22.8 20.6 7.8 38 7.9 SE 9 13 5 7 1015.6 1015.0 0.0
 
Date/Time
CST
Temp
°C
App
Temp
°C
Dew
Point
°C
Rel
Hum
%
Delta-T
°C
Wind Press
QNH
hPa
Press
MSL
hPa
Rain since
9am
mm
Dir  Spd
km/h
Gust
km/h
Spd
kts
Gust
kts
27/11:30pm 23.1 20.8 7.6 37 8.1 SE 9 13 5 7 1015.8 - 0.0
27/11:00pm 24.2 21.9 7.4 34 8.8 ESE 9 13 5 7 1016.0 - 0.0
27/10:30pm 25.0 22.3 7.2 32 9.4 ESE 11 15 6 8 1015.9 - 0.0
27/10:00pm 25.3 22.6 7.4 32 9.5 SE 11 19 6 10 1015.8 - 0.0
27/09:30pm 26.1 23.0 7.2 30 10.0 SE 13 19 7 10 1015.6 - 0.0
27/09:00pm 26.3 23.2 7.4 30 10.1 SE 13 20 7 11 1015.2 1014.6 0.0
27/08:30pm 26.4 23.8 7.9 31 9.9 SE 11 17 6 9 1014.8 - 0.0
27/08:00pm 26.7 24.2 8.2 31 10.0 SE 11 17 6 9 1014.3 - 0.0
27/07:30pm 27.3 24.5 8.7 31 10.2 SE 13 20 7 11 1013.7 - 0.0
27/07:00pm 27.6 25.4 9.4 32 10.1 SSE 11 17 6 9 1013.3 - 0.0
27/06:30pm 28.3 25.6 9.1 30 10.6 SSE 13 17 7 9 1012.8 - 0.0
27/06:00pm 29.5 27.6 9.1 28 11.4 SE 9 13 5 7 1012.5 1011.9 0.0
27/05:30pm 30.9 27.9 9.2 26 12.2 SE 15 24 8 13 1012.1 - 0.0
27/05:00pm 31.8 28.8 9.3 25 12.7 ESE 15 26 8 14 1012.3 - 0.0
27/04:30pm 31.7 28.6 8.7 24 12.9 SE 15 26 8 14 1012.2 - 0.0
27/04:00pm 31.8 28.5 8.1 23 13.2 ESE 15 24 8 13 1012.1 - 0.0
27/03:30pm 32.1 28.5 8.4 23 13.2 SE 17 28 9 15 1012.1 - 0.0
27/03:00pm 31.8 28.4 7.5 22 13.4 ESE 15 30 8 16 1012.4 1011.8 0.0
27/02:30pm 31.6 27.9 7.9 23 13.1 ESE 17 30 9 16 1012.9 - 0.0
27/02:00pm 31.6 28.1 8.6 24 12.9 SE 17 28 9 15 1013.4 - 0.0
27/01:30pm 30.7 26.8 7.2 23 12.8 ESE 17 24 9 13 1013.8 - 0.0
27/01:00pm 30.6 26.7 7.1 23 12.8 ESE 17 32 9 17 1014.3 - 0.0
27/12:30pm 30.4 26.9 7.0 23 12.7 ESE 15 22 8 12 1015.0 - 0.0
27/12:00pm 29.4 24.8 5.5 22 12.5 ESE 19 32 10 17 1015.7 1015.3 0.0
27/11:30am 29.2 25.6 6.6 24 12.1 SE 15 26 8 14 1016.3 - 0.0
27/11:00am 28.3 23.9 6.4 25 11.6 ESE 19 32 10 17 1016.6 - 0.0
27/10:30am 27.4 22.7 6.2 26 11.1 ESE 20 33 11 18 1017.0 - 0.0
27/10:00am 27.2 22.7 7.1 28 10.7 ESE 20 37 11 20 1017.2 - 0.0
27/09:30am 26.0 21.8 7.6 31 9.8 ESE 19 30 10 16 1017.1 - 0.0
27/09:00am 25.9 20.5 8.0 32 9.6 E 26 33 14 18 1016.6 1016.1 0.0
27/08:30am 25.0 22.6 10.1 39 8.3 SE 13 19 7 10 1016.3 - 0.0
27/08:00am 23.8 22.4 10.8 44 7.3 SE 9 13 5 7 1016.0 - 0.0
27/07:30am 23.3 22.6 11.4 47 6.7 SSE 6 9 3 5 1015.6 - 0.0
27/07:00am 23.1 21.7 10.9 46 6.8 SE 9 17 5 9 1015.2 - 0.0
27/06:30am 23.4 21.9 10.5 44 7.1 SSE 9 13 5 7 1014.6 - 0.0
27/06:00am 24.5 22.7 9.6 39 8.2 SE 9 13 5 7 1014.2 1013.5 0.0
27/05:30am 25.1 22.6 9.8 38 8.4 SE 13 19 7 10 1013.5 - 0.0
27/05:00am 25.7 24.0 11.1 40 8.3 SE 11 17 6 9 1013.3 - 0.0
27/04:30am 26.4 23.5 10.9 38 8.8 SE 17 32 9 17 1012.9 - 0.0
27/04:00am 26.4 25.4 13.5 45 7.6 SE 11 19 6 10 1012.7 - 0.0
27/03:30am 27.0 26.0 13.4 43 8.0 SE 11 19 6 10 1012.5 - 0.0
27/03:00am 27.9 27.4 13.8 42 8.4 ESE 9 17 5 9 1012.5 1011.9 0.0
27/02:30am 28.1 27.3 14.0 42 8.5 ESE 11 15 6 8 1012.4 - 0.0
27/02:00am 28.9 27.0 14.3 40 8.8 E 17 26 9 14 1012.5 - 0.0
27/01:30am 29.0 27.3 14.8 42 8.7 E 17 26 9 14 1012.7 - 0.0
27/01:00am 28.9 28.6 15.4 44 8.3 E 11 19 6 10 1012.8 - 0.0
27/12:30am 27.0 28.0 16.9 54 6.3 ESE 7 9 4 5 1012.9 - 0.0
27/12:00am 26.9 27.5 16.8 54 6.3 SE 9 15 5 8 1012.9 1012.3 0.0
 
Date/Time
CST
Temp
°C
App
Temp
°C
Dew
Point
°C
Rel
Hum
%
Delta-T
°C
Wind Press
QNH
hPa
Press
MSL
hPa
Rain since
9am
mm
Dir  Spd
km/h
Gust
km/h
Spd
kts
Gust
kts
26/11:30pm 27.2 27.7 16.5 52 6.6 SE 9 15 5 8 1013.1 - 0.0
26/11:00pm 27.8 28.0 16.7 50 6.9 SE 11 17 6 9 1013.1 - 0.0
26/10:30pm 27.5 28.2 17.1 53 6.5 SE 9 13 5 7 1013.2 - 0.0
26/10:00pm 27.9 28.9 16.8 50 6.9 SE 7 11 4 6 1013.1 - 0.0
26/09:30pm 28.5 - 17.1 50 7.2 - - - - - 1013.0 - 0.0
26/09:00pm 28.8 29.2 16.4 47 7.7 SE 9 13 5 7 1012.7 1012.1 0.0
26/08:30pm 30.0 30.3 16.1 43 8.7 SE 9 11 5 6 1012.4 - 0.0
26/08:00pm 31.1 31.2 15.5 39 9.7 ESE 9 15 5 8 1012.0 - 0.0
26/07:30pm 31.6 31.2 15.1 36 10.2 ESE 11 15 6 8 1011.4 - 0.0
26/07:00pm 32.2 31.5 14.3 33 11.0 ESE 11 17 6 9 1010.8 - 0.0
26/06:30pm 32.7 31.8 13.8 31 11.5 ESE 11 17 6 9 1010.2 - 0.0
26/06:00pm 33.7 32.7 14.7 32 11.8 ESE 13 19 7 10 1009.8 1009.2 0.0
26/05:30pm 34.3 33.3 14.7 30 12.2 ESE 13 22 7 12 1009.5 - 0.0
26/05:00pm 34.5 33.1 14.4 30 12.4 SE 15 26 8 14 1009.1 - 0.0
26/04:30pm 34.6 33.0 15.0 31 12.2 SSE 17 32 9 17 1008.7 - 0.0
26/04:00pm 34.7 34.1 15.6 32 12.0 SSE 13 24 7 13 1008.8 - 0.0
26/03:30pm 34.9 34.7 16.7 34 11.6 S 13 28 7 15 1009.1 - 0.0
26/03:00pm 34.3 33.9 16.2 34 11.5 SSE 13 26 7 14 1009.4 1008.9 0.0
26/02:30pm 34.5 34.2 16.4 34 11.5 S 13 24 7 13 1009.7 - 0.0
26/02:00pm 33.7 33.5 15.7 34 11.3 SSE 11 19 6 10 1010.2 - 0.0
26/01:30pm 33.6 33.1 16.0 34 11.1 S 13 19 7 10 1010.4 - 0.0
26/01:00pm 33.6 33.5 16.0 34 11.1 SSE 11 19 6 10 1010.8 - 0.0
26/12:30pm 34.4 35.5 18.0 37 10.7 SSE 9 13 5 7 1011.3 - 0.0
26/12:00pm 33.1 34.0 16.5 37 10.5 E 7 13 4 7 1012.2 1011.6 0.0
26/11:30am 32.0 33.4 17.8 42 9.1 E 7 15 4 8 1012.3 - 0.0
26/11:00am 31.0 32.4 17.7 45 8.5 E 7 13 4 7 1012.9 - 0.0
26/10:30am 30.3 31.7 17.7 46 8.1 SE 7 11 4 6 1013.2 - 0.0
26/10:00am 30.1 31.2 17.9 48 7.8 ENE 9 15 5 8 1013.2 - 0.0
26/09:30am 28.8 30.3 18.0 52 6.9 ENE 7 13 4 7 1013.2 - 0.0
26/09:00am 26.5 28.8 17.6 58 5.6 SSE 2 7 1 4 1013.0 1012.4 0.0
26/08:30am 24.7 27.4 17.7 65 4.4 CALM 0 0 0 0 1012.8 - 0.0
26/08:00am 23.6 26.5 18.3 72 3.3 CALM 0 0 0 0 1012.7 - 0.0
26/07:30am 21.4 24.0 17.4 78 2.5 CALM 0 0 0 0 1012.4 - 0.0
26/07:00am 21.1 23.6 17.3 79 2.3 CALM 0 0 0 0 1011.9 - 0.0
26/06:30am 21.1 23.5 17.1 78 2.5 CALM 0 0 0 0 1011.6 - 0.0
26/06:00am 20.9 23.3 16.9 78 2.4 CALM 0 0 0 0 1011.3 1010.8 0.0
26/05:30am 21.0 23.4 17.0 78 2.4 CALM 0 0 0 0 1011.4 - 0.0
26/05:00am 21.5 23.9 16.9 75 2.8 CALM 0 0 0 0 1011.4 - 0.0
26/04:30am 22.8 23.8 16.8 69 3.7 SSE 7 9 4 5 1011.6 - 0.0
26/04:00am 21.5 23.9 17.1 76 2.7 CALM 0 0 0 0 1011.3 - 0.0
26/03:30am 21.5 23.9 16.9 75 2.8 CALM 0 0 0 0 1011.6 - 0.0
26/03:00am 22.0 24.5 17.2 74 3.0 CALM 0 0 0 0 1011.6 1011.0 0.0
26/02:30am 22.4 24.9 17.3 73 3.2 CALM 0 0 0 0 1011.6 - 0.0
26/02:00am 22.7 24.6 16.7 69 3.7 WSW 2 7 1 4 1011.9 - 0.0
26/01:30am 23.3 24.6 16.1 64 4.4 W 4 7 2 4 1011.8 - 0.0
26/01:00am 23.4 24.3 16.2 64 4.4 NW 6 11 3 6 1012.1 - 0.0
26/12:30am 23.1 24.1 16.4 66 4.1 NW 6 7 3 4 1012.3 - 0.0
26/12:00am 23.7 25.8 16.2 63 4.6 CALM 0 6 0 3 1012.4 1011.8 0.0
 
Date/Time
CST
Temp
°C
App
Temp
°C
Dew
Point
°C
Rel
Hum
%
Delta-T
°C
Wind Press
QNH
hPa
Press
MSL
hPa
Rain since
9am
mm
Dir  Spd
km/h
Gust
km/h
Spd
kts
Gust
kts
25/11:30pm 24.5 25.4 16.0 59 5.2 W 6 7 3 4 1012.4 - 0.0
25/11:00pm 24.8 25.3 15.1 54 5.8 N 6 7 3 4 1012.5 - 0.0
25/10:30pm 26.7 26.9 14.8 48 7.2 S 7 9 4 5 1012.6 - 0.0
25/10:00pm 27.0 27.6 15.4 49 7.1 E 6 7 3 4 1012.6 - 0.0
25/09:30pm 27.2 27.6 15.2 47 7.3 NE 7 19 4 10 1012.8 - 0.0
25/09:00pm 28.3 29.1 13.8 41 8.7 SSE 2 7 1 4 1012.2 1011.6 0.0
25/08:30pm 29.7 28.9 13.0 35 9.9 SSE 9 11 5 6 1011.7 - 0.0
25/08:00pm 29.4 29.3 13.2 37 9.6 SSE 6 9 3 5 1011.1 - 0.0
25/07:30pm 29.5 28.8 13.3 37 9.7 S 9 11 5 6 1010.7 - 0.0
25/07:00pm 30.4 30.4 14.1 37 9.9 S 7 11 4 6 1010.3 - 0.0
25/06:30pm 31.8 33.1 14.0 34 10.8 CALM 0 0 0 0 1009.8 - 0.0
25/06:00pm 34.1 33.9 13.5 28 12.6 SE 7 9 4 5 1009.5 1009.0 0.0
25/05:30pm 35.1 34.6 12.7 26 13.5 S 7 13 4 7 1009.3 - 0.0
25/05:00pm 35.4 34.4 12.4 25 13.9 SSE 9 19 5 10 1008.9 - 0.0
25/04:30pm 35.8 34.7 12.1 24 14.2 SE 9 13 5 7 1008.9 - 0.0
25/04:00pm 35.9 35.3 13.4 26 13.8 S 9 19 5 10 1008.9 - 0.0
25/03:30pm 35.4 34.6 13.0 26 13.6 SSW 9 13 5 7 1009.0 - 0.0
25/03:00pm 35.4 34.4 12.4 25 13.9 SSE 9 13 5 7 1009.4 1008.9 0.0
25/02:30pm 35.9 35.5 14.0 27 13.5 SW 9 13 5 7 1009.7 - 0.0
25/02:00pm 35.5 34.9 13.6 26 13.4 WSW 9 13 5 7 1010.3 - 0.0

Other Formats:

Comma delimited format used in spreadsheet applications
http://www.bom.gov.au/fwo/IDD60801/IDD60801.94232.axf

JavaScript Object Notation format (JSON) in row-major order
http://www.bom.gov.au/fwo/IDD60801/IDD60801.94232.json